sensor_id;sensor_type;location;lat;lon;timestamp;P1;durP1;ratioP1;P2;durP2;ratioP2
46417;SDS011;69884;64.758;20.962;2023-07-13T04:03:11;4.20;;;3.40;;
46417;SDS011;69884;64.758;20.962;2023-07-13T04:05:57;3.93;;;3.20;;
46417;SDS011;69884;64.758;20.962;2023-07-13T04:08:40;3.75;;;3.25;;
46417;SDS011;69884;64.758;20.962;2023-07-13T04:11:22;3.70;;;3.20;;
46417;SDS011;69884;64.758;20.962;2023-07-13T04:16:47;3.75;;;3.45;;
46417;SDS011;69884;64.758;20.962;2023-07-13T04:22:46;3.45;;;3.15;;
46417;SDS011;69884;64.758;20.962;2023-07-13T04:28:26;4.15;;;3.70;;
46417;SDS011;69884;64.758;20.962;2023-07-13T04:40:17;4.38;;;3.50;;
46417;SDS011;69884;64.758;20.962;2023-07-13T05:11:08;3.00;;;2.70;;
46417;SDS011;69884;64.758;20.962;2023-07-13T05:19:45;2.90;;;2.70;;
46417;SDS011;69884;64.758;20.962;2023-07-13T05:22:10;2.97;;;2.70;;
46417;SDS011;69884;64.758;20.962;2023-07-13T05:27:36;3.40;;;2.70;;
46417;SDS011;69884;64.758;20.962;2023-07-13T05:35:25;3.05;;;2.80;;
46417;SDS011;69884;64.758;20.962;2023-07-13T05:37:50;3.37;;;2.90;;
46417;SDS011;69884;64.758;20.962;2023-07-13T05:40:15;3.00;;;2.77;;
46417;SDS011;69884;64.758;20.962;2023-07-13T05:42:41;5.80;;;3.17;;
46417;SDS011;69884;64.758;20.962;2023-07-13T05:45:06;2.97;;;2.40;;
46417;SDS011;69884;64.758;20.962;2023-07-13T05:47:32;2.95;;;2.65;;
46417;SDS011;69884;64.758;20.962;2023-07-13T05:49:57;2.90;;;2.70;;
46417;SDS011;69884;64.758;20.962;2023-07-13T05:52:22;3.58;;;2.67;;
46417;SDS011;69884;64.758;20.962;2023-07-13T05:54:47;3.10;;;2.50;;
46417;SDS011;69884;64.758;20.962;2023-07-13T05:57:13;2.50;;;2.30;;
46417;SDS011;69884;64.758;20.962;2023-07-13T05:59:38;5.70;;;2.40;;
46417;SDS011;69884;64.758;20.962;2023-07-13T06:02:03;2.90;;;2.70;;
46417;SDS011;69884;64.758;20.962;2023-07-13T06:04:29;3.53;;;2.43;;
46417;SDS011;69884;64.758;20.962;2023-07-13T06:06:54;2.50;;;2.30;;
46417;SDS011;69884;64.758;20.962;2023-07-13T06:09:19;3.23;;;2.40;;
46417;SDS011;69884;64.758;20.962;2023-07-13T06:11:44;3.47;;;2.40;;
46417;SDS011;69884;64.758;20.962;2023-07-13T06:14:10;5.43;;;2.50;;
46417;SDS011;69884;64.758;20.962;2023-07-13T06:16:35;2.60;;;2.40;;
46417;SDS011;69884;64.758;20.962;2023-07-13T06:19:00;2.75;;;2.42;;
46417;SDS011;69884;64.758;20.962;2023-07-13T06:21:26;2.40;;;2.20;;
46417;SDS011;69884;64.758;20.962;2023-07-13T06:23:52;2.70;;;2.33;;
46417;SDS011;69884;64.758;20.962;2023-07-13T06:26:18;3.05;;;2.13;;
46417;SDS011;69884;64.758;20.962;2023-07-13T06:28:44;2.97;;;2.40;;
46417;SDS011;69884;64.758;20.962;2023-07-13T06:31:10;2.67;;;2.20;;
46417;SDS011;69884;64.758;20.962;2023-07-13T06:33:35;2.63;;;2.00;;
46417;SDS011;69884;64.758;20.962;2023-07-13T06:36:02;2.45;;;1.98;;
46417;SDS011;69884;64.758;20.962;2023-07-13T06:38:28;2.37;;;2.13;;
46417;SDS011;69884;64.758;20.962;2023-07-13T06:40:53;2.47;;;1.90;;
46417;SDS011;69884;64.758;20.962;2023-07-13T06:43:18;2.30;;;2.10;;
46417;SDS011;69884;64.758;20.962;2023-07-13T06:45:45;3.20;;;2.22;;
46417;SDS011;69884;64.758;20.962;2023-07-13T06:48:14;2.45;;;2.25;;
46417;SDS011;69884;64.758;20.962;2023-07-13T06:50:39;3.80;;;2.40;;
46417;SDS011;69884;64.758;20.962;2023-07-13T06:53:04;3.17;;;2.73;;
46417;SDS011;69884;64.758;20.962;2023-07-13T06:55:30;4.00;;;2.00;;
46417;SDS011;69884;64.758;20.962;2023-07-13T06:57:55;2.50;;;2.10;;
46417;SDS011;69884;64.758;20.962;2023-07-13T07:00:20;3.30;;;1.93;;
46417;SDS011;69884;64.758;20.962;2023-07-13T07:02:46;2.90;;;2.10;;
46417;SDS011;69884;64.758;20.962;2023-07-13T07:05:11;2.83;;;2.30;;
46417;SDS011;69884;64.758;20.962;2023-07-13T07:07:36;2.23;;;2.03;;
46417;SDS011;69884;64.758;20.962;2023-07-13T07:10:02;2.17;;;1.97;;
46417;SDS011;69884;64.758;20.962;2023-07-13T07:12:28;3.63;;;2.28;;
46417;SDS011;69884;64.758;20.962;2023-07-13T07:14:53;2.30;;;2.00;;
46417;SDS011;69884;64.758;20.962;2023-07-13T07:17:21;2.20;;;2.00;;
46417;SDS011;69884;64.758;20.962;2023-07-13T07:19:46;2.30;;;2.10;;
46417;SDS011;69884;64.758;20.962;2023-07-13T07:22:12;2.40;;;2.20;;
46417;SDS011;69884;64.758;20.962;2023-07-13T07:24:37;3.10;;;2.20;;
46417;SDS011;69884;64.758;20.962;2023-07-13T07:27:02;3.47;;;2.27;;
46417;SDS011;69884;64.758;20.962;2023-07-13T07:29:30;2.60;;;1.90;;
46417;SDS011;69884;64.758;20.962;2023-07-13T07:32:00;3.30;;;2.20;;
46417;SDS011;69884;64.758;20.962;2023-07-13T07:34:29;4.43;;;2.03;;
46417;SDS011;69884;64.758;20.962;2023-07-13T07:37:14;2.83;;;1.90;;
46417;SDS011;69884;64.758;20.962;2023-07-13T07:39:47;2.60;;;2.00;;
46417;SDS011;69884;64.758;20.962;2023-07-13T07:42:22;3.38;;;2.03;;
46417;SDS011;69884;64.758;20.962;2023-07-13T07:45:08;2.30;;;2.10;;
46417;SDS011;69884;64.758;20.962;2023-07-13T07:47:36;2.97;;;2.20;;
46417;SDS011;69884;64.758;20.962;2023-07-13T07:50:11;3.30;;;2.25;;
46417;SDS011;69884;64.758;20.962;2023-07-13T07:52:36;3.00;;;2.20;;
46417;SDS011;69884;64.758;20.962;2023-07-13T07:55:11;2.38;;;2.17;;
46417;SDS011;69884;64.758;20.962;2023-07-13T07:57:36;3.33;;;2.57;;
46417;SDS011;69884;64.758;20.962;2023-07-13T08:00:02;3.20;;;2.17;;
46417;SDS011;69884;64.758;20.962;2023-07-13T08:02:30;2.33;;;2.10;;
46417;SDS011;69884;64.758;20.962;2023-07-13T08:04:57;3.00;;;2.00;;
46417;SDS011;69884;64.758;20.962;2023-07-13T08:07:23;6.35;;;2.30;;
46417;SDS011;69884;64.758;20.962;2023-07-13T08:09:48;3.23;;;2.20;;
46417;SDS011;69884;64.758;20.962;2023-07-13T08:12:24;4.23;;;2.27;;
46417;SDS011;69884;64.758;20.962;2023-07-13T08:14:57;4.50;;;2.33;;
46417;SDS011;69884;64.758;20.962;2023-07-13T08:17:23;2.30;;;2.10;;
46417;SDS011;69884;64.758;20.962;2023-07-13T08:19:54;4.53;;;2.07;;
46417;SDS011;69884;64.758;20.962;2023-07-13T08:22:19;2.08;;;1.95;;
46417;SDS011;69884;64.758;20.962;2023-07-13T08:24:45;2.97;;;2.00;;
46417;SDS011;69884;64.758;20.962;2023-07-13T08:27:11;2.17;;;1.97;;
46417;SDS011;69884;64.758;20.962;2023-07-13T08:32:14;2.70;;;2.00;;
46417;SDS011;69884;64.758;20.962;2023-07-13T08:35:01;3.22;;;2.30;;
46417;SDS011;69884;64.758;20.962;2023-07-13T08:37:28;3.97;;;2.15;;
46417;SDS011;69884;64.758;20.962;2023-07-13T08:39:54;2.20;;;1.93;;
46417;SDS011;69884;64.758;20.962;2023-07-13T08:42:39;2.88;;;2.00;;
46417;SDS011;69884;64.758;20.962;2023-07-13T08:48:14;3.17;;;2.20;;
46417;SDS011;69884;64.758;20.962;2023-07-13T08:50:49;3.22;;;2.10;;
46417;SDS011;69884;64.758;20.962;2023-07-13T08:53:17;2.10;;;1.90;;
46417;SDS011;69884;64.758;20.962;2023-07-13T08:55:43;3.40;;;2.25;;
46417;SDS011;69884;64.758;20.962;2023-07-13T08:58:11;2.40;;;2.20;;
46417;SDS011;69884;64.758;20.962;2023-07-13T09:00:48;2.10;;;2.00;;
46417;SDS011;69884;64.758;20.962;2023-07-13T09:03:20;5.03;;;2.45;;
46417;SDS011;69884;64.758;20.962;2023-07-13T09:05:49;4.63;;;2.57;;
46417;SDS011;69884;64.758;20.962;2023-07-13T09:16:23;3.17;;;2.60;;
46417;SDS011;69884;64.758;20.962;2023-07-13T09:18:50;2.77;;;2.57;;
46417;SDS011;69884;64.758;20.962;2023-07-13T09:21:20;2.57;;;2.33;;
46417;SDS011;69884;64.758;20.962;2023-07-13T09:23:47;2.70;;;2.50;;
46417;SDS011;69884;64.758;20.962;2023-07-13T09:26:20;3.92;;;2.30;;
46417;SDS011;69884;64.758;20.962;2023-07-13T09:28:53;2.90;;;2.45;;
46417;SDS011;69884;64.758;20.962;2023-07-13T09:31:22;3.30;;;2.78;;
46417;SDS011;69884;64.758;20.962;2023-07-13T09:33:48;3.63;;;2.63;;
46417;SDS011;69884;64.758;20.962;2023-07-13T09:38:43;3.40;;;2.87;;
46417;SDS011;69884;64.758;20.962;2023-07-13T09:44:06;3.47;;;2.92;;
46417;SDS011;69884;64.758;20.962;2023-07-13T09:46:38;3.28;;;2.97;;
46417;SDS011;69884;64.758;20.962;2023-07-13T09:49:03;4.22;;;3.03;;
46417;SDS011;69884;64.758;20.962;2023-07-13T09:51:36;4.23;;;3.63;;
46417;SDS011;69884;64.758;20.962;2023-07-13T09:54:02;4.53;;;2.88;;
46417;SDS011;69884;64.758;20.962;2023-07-13T09:56:33;5.00;;;3.20;;
46417;SDS011;69884;64.758;20.962;2023-07-13T09:58:59;3.60;;;3.30;;
46417;SDS011;69884;64.758;20.962;2023-07-13T10:01:31;4.00;;;2.78;;
46417;SDS011;69884;64.758;20.962;2023-07-13T10:03:57;3.50;;;3.00;;
46417;SDS011;69884;64.758;20.962;2023-07-13T10:06:25;4.80;;;3.23;;
46417;SDS011;69884;64.758;20.962;2023-07-13T10:08:51;3.58;;;3.28;;
46417;SDS011;69884;64.758;20.962;2023-07-13T10:11:18;4.82;;;3.22;;
46417;SDS011;69884;64.758;20.962;2023-07-13T10:13:44;4.20;;;3.05;;
46417;SDS011;69884;64.758;20.962;2023-07-13T10:16:10;4.53;;;3.20;;
46417;SDS011;69884;64.758;20.962;2023-07-13T10:18:46;3.23;;;2.93;;
46417;SDS011;69884;64.758;20.962;2023-07-13T10:21:16;3.65;;;3.00;;
46417;SDS011;69884;64.758;20.962;2023-07-13T10:23:42;4.72;;;2.80;;
46417;SDS011;69884;64.758;20.962;2023-07-13T10:26:16;4.00;;;2.93;;
46417;SDS011;69884;64.758;20.962;2023-07-13T10:28:42;3.13;;;2.83;;
46417;SDS011;69884;64.758;20.962;2023-07-13T10:31:12;3.13;;;2.70;;
46417;SDS011;69884;64.758;20.962;2023-07-13T10:33:40;2.90;;;2.70;;
46417;SDS011;69884;64.758;20.962;2023-07-13T10:36:14;2.85;;;2.60;;
46417;SDS011;69884;64.758;20.962;2023-07-13T10:38:45;3.50;;;3.10;;
46417;SDS011;69884;64.758;20.962;2023-07-13T10:41:25;3.53;;;3.05;;
46417;SDS011;69884;64.758;20.962;2023-07-13T10:44:24;3.45;;;3.00;;
46417;SDS011;69884;64.758;20.962;2023-07-13T10:47:01;3.63;;;2.78;;
46417;SDS011;69884;64.758;20.962;2023-07-13T10:56:19;2.90;;;2.60;;
46417;SDS011;69884;64.758;20.962;2023-07-13T10:58:44;3.15;;;2.53;;
46417;SDS011;69884;64.758;20.962;2023-07-13T11:01:14;2.70;;;2.50;;
46417;SDS011;69884;64.758;20.962;2023-07-13T11:03:49;2.63;;;2.42;;
46417;SDS011;69884;64.758;20.962;2023-07-13T11:06:37;3.40;;;2.80;;
46417;SDS011;69884;64.758;20.962;2023-07-13T11:11:45;4.20;;;2.67;;
46417;SDS011;69884;64.758;20.962;2023-07-13T11:14:30;2.95;;;2.60;;
46417;SDS011;69884;64.758;20.962;2023-07-13T11:17:09;4.22;;;2.85;;
46417;SDS011;69884;64.758;20.962;2023-07-13T11:19:50;3.72;;;2.67;;
46417;SDS011;69884;64.758;20.962;2023-07-13T11:22:16;3.80;;;2.70;;
46417;SDS011;69884;64.758;20.962;2023-07-13T11:25:00;3.85;;;2.70;;
46417;SDS011;69884;64.758;20.962;2023-07-13T11:32:42;4.23;;;2.90;;
46417;SDS011;69884;64.758;20.962;2023-07-13T11:35:20;3.58;;;2.95;;
46417;SDS011;69884;64.758;20.962;2023-07-13T11:37:47;4.85;;;3.03;;
46417;SDS011;69884;64.758;20.962;2023-07-13T11:40:16;3.42;;;3.13;;
46417;SDS011;69884;64.758;20.962;2023-07-13T11:45:51;3.57;;;2.70;;
46417;SDS011;69884;64.758;20.962;2023-07-13T11:48:21;3.55;;;2.78;;
46417;SDS011;69884;64.758;20.962;2023-07-13T11:50:50;4.28;;;2.70;;
46417;SDS011;69884;64.758;20.962;2023-07-13T11:53:19;3.88;;;2.70;;
46417;SDS011;69884;64.758;20.962;2023-07-13T11:55:44;3.40;;;2.70;;
46417;SDS011;69884;64.758;20.962;2023-07-13T11:58:18;5.57;;;2.80;;
46417;SDS011;69884;64.758;20.962;2023-07-13T12:00:46;3.80;;;2.70;;
46417;SDS011;69884;64.758;20.962;2023-07-13T12:03:12;4.10;;;2.80;;
46417;SDS011;69884;64.758;20.962;2023-07-13T12:05:38;3.40;;;2.60;;
46417;SDS011;69884;64.758;20.962;2023-07-13T12:08:22;3.97;;;2.17;;
46417;SDS011;69884;64.758;20.962;2023-07-13T12:10:56;3.95;;;2.10;;
46417;SDS011;69884;64.758;20.962;2023-07-13T12:13:21;4.43;;;2.23;;
46417;SDS011;69884;64.758;20.962;2023-07-13T12:15:47;4.55;;;2.28;;
46417;SDS011;69884;64.758;20.962;2023-07-13T12:18:20;3.65;;;1.90;;
46417;SDS011;69884;64.758;20.962;2023-07-13T12:20:46;2.08;;;1.88;;
46417;SDS011;69884;64.758;20.962;2023-07-13T12:26:15;2.33;;;1.70;;
46417;SDS011;69884;64.758;20.962;2023-07-13T12:28:49;3.90;;;1.67;;
46417;SDS011;69884;64.758;20.962;2023-07-13T12:31:31;2.20;;;1.60;;
46417;SDS011;69884;64.758;20.962;2023-07-13T12:34:00;1.70;;;1.60;;
46417;SDS011;69884;64.758;20.962;2023-07-13T12:36:26;2.20;;;1.77;;
46417;SDS011;69884;64.758;20.962;2023-07-13T12:38:56;4.65;;;1.58;;
46417;SDS011;69884;64.758;20.962;2023-07-13T12:41:22;1.80;;;1.42;;
46417;SDS011;69884;64.758;20.962;2023-07-13T12:43:48;2.78;;;1.50;;
46417;SDS011;69884;64.758;20.962;2023-07-13T12:48:48;1.88;;;1.52;;
46417;SDS011;69884;64.758;20.962;2023-07-13T12:51:13;2.70;;;1.77;;
46417;SDS011;69884;64.758;20.962;2023-07-13T12:53:40;2.10;;;1.90;;
46417;SDS011;69884;64.758;20.962;2023-07-13T12:56:06;2.28;;;1.50;;
46417;SDS011;69884;64.758;20.962;2023-07-13T12:58:37;2.93;;;1.40;;
46417;SDS011;69884;64.758;20.962;2023-07-13T13:01:03;1.45;;;1.30;;
46417;SDS011;69884;64.758;20.962;2023-07-13T13:03:50;2.00;;;1.13;;
46417;SDS011;69884;64.758;20.962;2023-07-13T13:06:22;1.90;;;1.20;;
46417;SDS011;69884;64.758;20.962;2023-07-13T13:08:52;2.00;;;1.30;;
46417;SDS011;69884;64.758;20.962;2023-07-13T13:11:19;1.30;;;1.20;;
46417;SDS011;69884;64.758;20.962;2023-07-13T13:13:44;1.85;;;1.33;;
46417;SDS011;69884;64.758;20.962;2023-07-13T13:16:22;1.85;;;1.20;;
46417;SDS011;69884;64.758;20.962;2023-07-13T13:18:48;3.17;;;1.40;;
46417;SDS011;69884;64.758;20.962;2023-07-13T13:21:14;1.70;;;1.42;;
46417;SDS011;69884;64.758;20.962;2023-07-13T13:23:39;3.05;;;1.55;;
46417;SDS011;69884;64.758;20.962;2023-07-13T13:26:08;1.65;;;1.20;;
46417;SDS011;69884;64.758;20.962;2023-07-13T13:28:34;1.93;;;1.40;;
46417;SDS011;69884;64.758;20.962;2023-07-13T13:30:59;2.60;;;1.30;;
46417;SDS011;69884;64.758;20.962;2023-07-13T13:33:25;1.80;;;1.60;;
46417;SDS011;69884;64.758;20.962;2023-07-13T13:35:52;1.80;;;1.53;;
46417;SDS011;69884;64.758;20.962;2023-07-13T13:38:23;1.88;;;1.50;;
46417;SDS011;69884;64.758;20.962;2023-07-13T13:40:50;1.77;;;1.60;;
46417;SDS011;69884;64.758;20.962;2023-07-13T13:43:18;3.63;;;1.50;;
46417;SDS011;69884;64.758;20.962;2023-07-13T13:45:44;2.40;;;1.77;;
46417;SDS011;69884;64.758;20.962;2023-07-13T13:48:17;1.90;;;1.75;;
46417;SDS011;69884;64.758;20.962;2023-07-13T13:50:43;2.67;;;1.50;;
46417;SDS011;69884;64.758;20.962;2023-07-13T13:53:12;2.20;;;1.90;;
46417;SDS011;69884;64.758;20.962;2023-07-13T13:55:41;2.60;;;1.60;;
46417;SDS011;69884;64.758;20.962;2023-07-13T13:58:07;1.80;;;1.40;;
46417;SDS011;69884;64.758;20.962;2023-07-13T14:00:33;2.40;;;1.40;;
46417;SDS011;69884;64.758;20.962;2023-07-13T14:02:58;2.20;;;1.63;;
46417;SDS011;69884;64.758;20.962;2023-07-13T14:05:24;2.05;;;1.60;;
46417;SDS011;69884;64.758;20.962;2023-07-13T14:07:53;3.00;;;1.50;;
46417;SDS011;69884;64.758;20.962;2023-07-13T14:10:19;1.90;;;1.30;;
46417;SDS011;69884;64.758;20.962;2023-07-13T14:12:52;1.90;;;1.60;;
46417;SDS011;69884;64.758;20.962;2023-07-13T14:15:20;2.03;;;1.67;;
46417;SDS011;69884;64.758;20.962;2023-07-13T14:17:46;1.90;;;1.42;;
46417;SDS011;69884;64.758;20.962;2023-07-13T14:20:14;1.95;;;1.60;;
46417;SDS011;69884;64.758;20.962;2023-07-13T14:22:40;1.60;;;1.40;;
46417;SDS011;69884;64.758;20.962;2023-07-13T14:25:10;3.67;;;1.60;;
46417;SDS011;69884;64.758;20.962;2023-07-13T14:27:35;2.22;;;1.48;;
46417;SDS011;69884;64.758;20.962;2023-07-13T14:30:00;2.90;;;1.80;;
46417;SDS011;69884;64.758;20.962;2023-07-13T14:32:26;1.80;;;1.40;;
46417;SDS011;69884;64.758;20.962;2023-07-13T14:34:52;1.53;;;1.43;;
46417;SDS011;69884;64.758;20.962;2023-07-13T14:37:17;2.33;;;1.43;;
46417;SDS011;69884;64.758;20.962;2023-07-13T14:39:43;1.60;;;1.50;;
46417;SDS011;69884;64.758;20.962;2023-07-13T14:42:09;1.90;;;1.60;;
46417;SDS011;69884;64.758;20.962;2023-07-13T14:44:34;2.00;;;1.77;;
46417;SDS011;69884;64.758;20.962;2023-07-13T14:47:00;2.30;;;1.60;;
46417;SDS011;69884;64.758;20.962;2023-07-13T14:49:30;2.70;;;1.80;;
46417;SDS011;69884;64.758;20.962;2023-07-13T14:51:56;2.33;;;1.58;;
46417;SDS011;69884;64.758;20.962;2023-07-13T14:54:22;2.63;;;1.95;;
46417;SDS011;69884;64.758;20.962;2023-07-13T14:56:48;2.00;;;1.80;;
46417;SDS011;69884;64.758;20.962;2023-07-13T14:59:13;2.30;;;1.50;;
46417;SDS011;69884;64.758;20.962;2023-07-13T15:01:39;2.30;;;1.80;;
46417;SDS011;69884;64.758;20.962;2023-07-13T15:04:04;1.92;;;1.80;;
46417;SDS011;69884;64.758;20.962;2023-07-13T15:06:30;2.28;;;2.00;;
46417;SDS011;69884;64.758;20.962;2023-07-13T15:08:56;2.72;;;2.08;;
46417;SDS011;69884;64.758;20.962;2023-07-13T15:11:23;1.98;;;1.70;;
46417;SDS011;69884;64.758;20.962;2023-07-13T15:13:50;2.47;;;1.90;;
46417;SDS011;69884;64.758;20.962;2023-07-13T15:16:18;2.67;;;1.90;;
46417;SDS011;69884;64.758;20.962;2023-07-13T15:18:45;1.85;;;1.73;;
46417;SDS011;69884;64.758;20.962;2023-07-13T15:21:11;3.97;;;2.10;;
46417;SDS011;69884;64.758;20.962;2023-07-13T15:23:41;2.80;;;1.92;;
46417;SDS011;69884;64.758;20.962;2023-07-13T15:26:15;2.47;;;2.27;;
46417;SDS011;69884;64.758;20.962;2023-07-13T15:28:44;2.10;;;1.90;;
46417;SDS011;69884;64.758;20.962;2023-07-13T15:31:23;2.33;;;2.10;;
46417;SDS011;69884;64.758;20.962;2023-07-13T15:33:49;2.20;;;2.00;;
46417;SDS011;69884;64.758;20.962;2023-07-13T15:36:19;5.25;;;2.13;;
46417;SDS011;69884;64.758;20.962;2023-07-13T15:38:44;3.13;;;2.03;;
46417;SDS011;69884;64.758;20.962;2023-07-13T15:41:21;2.70;;;2.20;;
46417;SDS011;69884;64.758;20.962;2023-07-13T15:43:53;3.30;;;1.95;;
46417;SDS011;69884;64.758;20.962;2023-07-13T15:46:19;3.20;;;1.80;;
46417;SDS011;69884;64.758;20.962;2023-07-13T15:48:46;4.13;;;2.05;;
46417;SDS011;69884;64.758;20.962;2023-07-13T15:51:19;2.20;;;1.80;;
46417;SDS011;69884;64.758;20.962;2023-07-13T15:53:45;2.00;;;1.80;;
46417;SDS011;69884;64.758;20.962;2023-07-13T15:56:23;3.03;;;2.30;;
46417;SDS011;69884;64.758;20.962;2023-07-13T15:58:50;2.20;;;1.90;;
46417;SDS011;69884;64.758;20.962;2023-07-13T16:01:15;1.83;;;1.70;;
46417;SDS011;69884;64.758;20.962;2023-07-13T16:03:44;2.00;;;1.80;;
46417;SDS011;69884;64.758;20.962;2023-07-13T16:06:14;2.80;;;1.80;;
46417;SDS011;69884;64.758;20.962;2023-07-13T16:08:43;2.40;;;1.60;;
46417;SDS011;69884;64.758;20.962;2023-07-13T16:11:32;1.95;;;1.50;;
46417;SDS011;69884;64.758;20.962;2023-07-13T16:14:02;1.53;;;1.40;;
46417;SDS011;69884;64.758;20.962;2023-07-13T16:16:31;1.38;;;1.27;;
46417;SDS011;69884;64.758;20.962;2023-07-13T16:19:02;2.65;;;1.42;;
46417;SDS011;69884;64.758;20.962;2023-07-13T16:21:28;2.20;;;1.53;;
46417;SDS011;69884;64.758;20.962;2023-07-13T16:23:54;2.47;;;1.30;;
46417;SDS011;69884;64.758;20.962;2023-07-13T16:26:39;1.63;;;1.27;;
46417;SDS011;69884;64.758;20.962;2023-07-13T16:29:11;1.70;;;1.10;;
46417;SDS011;69884;64.758;20.962;2023-07-13T16:31:38;1.50;;;0.90;;
46417;SDS011;69884;64.758;20.962;2023-07-13T16:34:04;1.17;;;1.00;;
46417;SDS011;69884;64.758;20.962;2023-07-13T16:36:29;1.57;;;1.00;;
46417;SDS011;69884;64.758;20.962;2023-07-13T16:38:55;1.08;;;0.98;;
46417;SDS011;69884;64.758;20.962;2023-07-13T16:41:24;1.50;;;0.90;;
46417;SDS011;69884;64.758;20.962;2023-07-13T16:43:49;1.33;;;0.98;;
46417;SDS011;69884;64.758;20.962;2023-07-13T16:46:15;1.92;;;1.20;;
46417;SDS011;69884;64.758;20.962;2023-07-13T16:48:46;2.05;;;1.05;;
46417;SDS011;69884;64.758;20.962;2023-07-13T16:51:11;1.77;;;1.20;;
46417;SDS011;69884;64.758;20.962;2023-07-13T16:53:36;2.27;;;1.10;;
46417;SDS011;69884;64.758;20.962;2023-07-13T16:56:05;1.42;;;0.90;;
46417;SDS011;69884;64.758;20.962;2023-07-13T16:58:33;2.58;;;1.20;;
46417;SDS011;69884;64.758;20.962;2023-07-13T17:01:00;1.30;;;1.00;;
46417;SDS011;69884;64.758;20.962;2023-07-13T17:03:28;3.00;;;1.20;;
46417;SDS011;69884;64.758;20.962;2023-07-13T17:05:54;1.67;;;1.10;;
46417;SDS011;69884;64.758;20.962;2023-07-13T17:08:20;2.33;;;1.00;;
46417;SDS011;69884;64.758;20.962;2023-07-13T17:10:50;2.03;;;0.90;;
46417;SDS011;69884;64.758;20.962;2023-07-13T17:13:16;1.60;;;1.10;;
46417;SDS011;69884;64.758;20.962;2023-07-13T17:15:42;2.17;;;1.10;;
46417;SDS011;69884;64.758;20.962;2023-07-13T17:18:10;1.58;;;1.13;;
46417;SDS011;69884;64.758;20.962;2023-07-13T17:20:37;1.52;;;1.08;;
46417;SDS011;69884;64.758;20.962;2023-07-13T17:23:17;2.33;;;1.20;;
46417;SDS011;69884;64.758;20.962;2023-07-13T17:25:43;1.35;;;1.05;;
46417;SDS011;69884;64.758;20.962;2023-07-13T17:28:09;1.92;;;1.20;;
46417;SDS011;69884;64.758;20.962;2023-07-13T17:30:35;1.33;;;1.10;;
46417;SDS011;69884;64.758;20.962;2023-07-13T17:33:01;1.20;;;1.00;;
46417;SDS011;69884;64.758;20.962;2023-07-13T17:35:27;2.25;;;1.15;;
46417;SDS011;69884;64.758;20.962;2023-07-13T17:38:01;1.85;;;1.33;;
46417;SDS011;69884;64.758;20.962;2023-07-13T17:40:27;1.33;;;1.20;;
46417;SDS011;69884;64.758;20.962;2023-07-13T17:42:52;1.50;;;1.10;;
46417;SDS011;69884;64.758;20.962;2023-07-13T17:45:30;1.85;;;1.20;;
46417;SDS011;69884;64.758;20.962;2023-07-13T17:47:58;2.70;;;1.30;;
46417;SDS011;69884;64.758;20.962;2023-07-13T17:50:27;2.28;;;1.10;;
46417;SDS011;69884;64.758;20.962;2023-07-13T17:53:05;1.98;;;1.25;;
46417;SDS011;69884;64.758;20.962;2023-07-13T17:55:33;1.98;;;1.42;;
46417;SDS011;69884;64.758;20.962;2023-07-13T17:57:59;3.23;;;1.50;;
46417;SDS011;69884;64.758;20.962;2023-07-13T18:00:26;1.77;;;1.45;;
46417;SDS011;69884;64.758;20.962;2023-07-13T18:02:58;1.83;;;1.23;;
46417;SDS011;69884;64.758;20.962;2023-07-13T18:05:26;2.10;;;1.30;;
46417;SDS011;69884;64.758;20.962;2023-07-13T18:07:51;1.70;;;1.20;;
46417;SDS011;69884;64.758;20.962;2023-07-13T18:10:18;3.20;;;1.42;;
46417;SDS011;69884;64.758;20.962;2023-07-13T18:12:44;1.77;;;1.27;;
46417;SDS011;69884;64.758;20.962;2023-07-13T18:15:10;1.60;;;1.10;;
46417;SDS011;69884;64.758;20.962;2023-07-13T18:17:35;1.70;;;1.20;;
46417;SDS011;69884;64.758;20.962;2023-07-13T18:20:02;1.88;;;1.23;;
46417;SDS011;69884;64.758;20.962;2023-07-13T18:22:36;2.97;;;1.20;;
46417;SDS011;69884;64.758;20.962;2023-07-13T18:25:05;2.65;;;1.20;;
46417;SDS011;69884;64.758;20.962;2023-07-13T18:27:40;1.92;;;1.15;;
46417;SDS011;69884;64.758;20.962;2023-07-13T18:30:06;1.42;;;1.10;;
46417;SDS011;69884;64.758;20.962;2023-07-13T18:32:36;1.83;;;1.20;;
46417;SDS011;69884;64.758;20.962;2023-07-13T18:35:05;1.57;;;1.13;;
46417;SDS011;69884;64.758;20.962;2023-07-13T18:37:36;1.50;;;1.10;;
46417;SDS011;69884;64.758;20.962;2023-07-13T18:40:05;1.17;;;1.00;;
46417;SDS011;69884;64.758;20.962;2023-07-13T18:42:35;1.40;;;1.17;;
46417;SDS011;69884;64.758;20.962;2023-07-13T18:45:00;1.88;;;1.00;;
46417;SDS011;69884;64.758;20.962;2023-07-13T18:47:29;1.80;;;1.10;;
46417;SDS011;69884;64.758;20.962;2023-07-13T18:50:05;1.67;;;1.15;;
46417;SDS011;69884;64.758;20.962;2023-07-13T18:52:56;1.10;;;1.00;;
46417;SDS011;69884;64.758;20.962;2023-07-13T18:55:23;2.70;;;1.30;;
46417;SDS011;69884;64.758;20.962;2023-07-13T18:57:51;1.80;;;1.10;;
46417;SDS011;69884;64.758;20.962;2023-07-13T19:00:20;1.67;;;1.30;;
46417;SDS011;69884;64.758;20.962;2023-07-13T19:02:47;1.77;;;1.08;;
46417;SDS011;69884;64.758;20.962;2023-07-13T19:05:16;1.98;;;1.10;;
46417;SDS011;69884;64.758;20.962;2023-07-13T19:07:42;2.22;;;1.10;;
46417;SDS011;69884;64.758;20.962;2023-07-13T19:10:14;1.77;;;1.10;;
46417;SDS011;69884;64.758;20.962;2023-07-13T19:12:43;1.40;;;1.25;;
46417;SDS011;69884;64.758;20.962;2023-07-13T19:15:20;2.03;;;1.20;;
46417;SDS011;69884;64.758;20.962;2023-07-13T19:17:47;1.40;;;1.00;;
46417;SDS011;69884;64.758;20.962;2023-07-13T19:20:15;1.57;;;1.23;;
46417;SDS011;69884;64.758;20.962;2023-07-13T19:22:46;1.60;;;1.30;;
46417;SDS011;69884;64.758;20.962;2023-07-13T19:25:14;1.88;;;1.20;;
46417;SDS011;69884;64.758;20.962;2023-07-13T19:27:42;1.52;;;1.15;;
46417;SDS011;69884;64.758;20.962;2023-07-13T19:30:12;1.50;;;1.30;;
46417;SDS011;69884;64.758;20.962;2023-07-13T19:32:43;2.40;;;1.27;;
46417;SDS011;69884;64.758;20.962;2023-07-13T19:35:08;2.20;;;1.25;;
46417;SDS011;69884;64.758;20.962;2023-07-13T19:37:36;1.87;;;1.30;;
46417;SDS011;69884;64.758;20.962;2023-07-13T19:40:26;2.13;;;1.40;;
46417;SDS011;69884;64.758;20.962;2023-07-13T19:42:48;1.92;;;1.30;;
46417;SDS011;69884;64.758;20.962;2023-07-13T19:45:21;2.33;;;1.35;;
46417;SDS011;69884;64.758;20.962;2023-07-13T19:47:50;1.85;;;1.35;;
46417;SDS011;69884;64.758;20.962;2023-07-13T19:50:18;1.50;;;1.40;;
46417;SDS011;69884;64.758;20.962;2023-07-13T19:52:48;2.05;;;1.65;;
46417;SDS011;69884;64.758;20.962;2023-07-13T19:55:14;2.17;;;1.65;;
46417;SDS011;69884;64.758;20.962;2023-07-13T19:57:42;2.70;;;1.58;;
46417;SDS011;69884;64.758;20.962;2023-07-13T20:00:16;4.78;;;1.90;;
46417;SDS011;69884;64.758;20.962;2023-07-13T20:02:42;2.90;;;1.80;;
46417;SDS011;69884;64.758;20.962;2023-07-13T20:05:08;2.73;;;1.80;;
46417;SDS011;69884;64.758;20.962;2023-07-13T20:07:33;3.07;;;1.73;;
46417;SDS011;69884;64.758;20.962;2023-07-13T20:09:58;3.53;;;1.80;;
46417;SDS011;69884;64.758;20.962;2023-07-13T20:12:24;2.10;;;1.70;;
46417;SDS011;69884;64.758;20.962;2023-07-13T20:14:53;2.58;;;1.80;;
46417;SDS011;69884;64.758;20.962;2023-07-13T20:19:54;2.08;;;1.80;;
46417;SDS011;69884;64.758;20.962;2023-07-13T20:22:19;2.80;;;1.63;;
46417;SDS011;69884;64.758;20.962;2023-07-13T20:24:50;3.88;;;1.92;;
46417;SDS011;69884;64.758;20.962;2023-07-13T20:27:20;3.70;;;1.90;;
46417;SDS011;69884;64.758;20.962;2023-07-13T20:29:57;2.95;;;1.80;;
46417;SDS011;69884;64.758;20.962;2023-07-13T20:32:46;2.35;;;1.90;;